createdAt,value
2018-07-28T00:04:24.457Z,91.40
2018-07-28T00:09:29.314Z,90.90
2018-07-28T00:14:34.166Z,92.00
2018-07-28T00:19:39.204Z,91.40
2018-07-28T00:24:44.702Z,92.40
2018-07-28T00:29:49.493Z,92.90
2018-07-28T00:34:54.215Z,93.00
2018-07-28T00:39:58.808Z,93.40
2018-07-28T00:45:04.009Z,94.00
2018-07-28T00:50:09.571Z,94.00
2018-07-28T00:55:14.272Z,94.10
2018-07-28T01:00:19.044Z,94.20
2018-07-28T01:05:24.593Z,94.60
2018-07-28T01:10:29.413Z,95.50
2018-07-28T01:15:34.130Z,96.30
2018-07-28T01:20:38.899Z,96.30
2018-07-28T01:25:43.911Z,95.90
2018-07-28T01:30:48.785Z,96.00
2018-07-28T01:35:53.833Z,95.80
2018-07-28T01:40:58.642Z,96.00
2018-07-28T01:46:03.604Z,96.00
2018-07-28T01:51:08.565Z,95.90
2018-07-28T01:56:13.304Z,95.90
2018-07-28T02:01:18.087Z,96.40
2018-07-28T02:06:23.059Z,96.60
2018-07-28T02:11:27.882Z,96.70
2018-07-28T02:16:34.063Z,96.60
2018-07-28T02:21:38.886Z,96.60
2018-07-28T02:26:43.646Z,96.40
2018-07-28T02:31:48.846Z,97.20
2018-07-28T02:42:04.506Z,98.50
2018-07-28T02:47:09.352Z,99.60
2018-07-28T02:52:14.573Z,99.60
2018-07-28T02:57:19.578Z,99.60
2018-07-28T03:02:25.352Z,99.60
2018-07-28T03:07:30.101Z,99.60
2018-07-28T03:12:34.958Z,99.60
2018-07-28T03:17:39.910Z,99.60
2018-07-28T03:22:44.489Z,99.60
2018-07-28T03:27:49.400Z,99.60
2018-07-28T03:32:54.521Z,99.60
2018-07-28T03:37:59.521Z,99.60
2018-07-28T03:43:04.386Z,99.60
2018-07-28T03:53:13.606Z,99.60
2018-07-28T03:58:18.541Z,99.60
2018-07-28T04:03:23.445Z,99.60
2018-07-28T04:08:28.383Z,99.60
2018-07-28T04:13:33.220Z,99.60
2018-07-28T04:18:37.940Z,99.60
2018-07-28T04:23:43.103Z,99.60
2018-07-28T04:28:47.812Z,99.60
2018-07-28T04:33:52.568Z,99.60
2018-07-28T04:38:57.294Z,99.60
2018-07-28T04:44:02.161Z,99.60
2018-07-28T04:49:07.953Z,99.60
2018-07-28T04:54:12.892Z,99.20
2018-07-28T04:59:17.673Z,98.70
2018-07-28T05:04:22.753Z,98.40
2018-07-28T05:09:27.543Z,97.90
2018-07-28T05:14:33.241Z,98.10
2018-07-28T05:19:38.274Z,98.30
2018-07-28T05:24:43.217Z,98.40
2018-07-28T05:29:48.139Z,99.00
2018-07-28T05:34:52.998Z,99.10
2018-07-28T05:39:57.709Z,98.40
2018-07-28T05:45:02.965Z,97.70
2018-07-28T05:50:09.097Z,96.80
2018-07-28T05:55:14.300Z,94.40
2018-07-28T06:00:20.144Z,91.90
2018-07-28T06:05:25.050Z,89.60
2018-07-28T06:10:30.116Z,88.90
2018-07-28T06:15:35.801Z,87.90
2018-07-28T06:20:41.161Z,94.50
2018-07-28T06:30:53.577Z,96.00
2018-07-28T06:35:58.307Z,95.80
2018-07-28T06:41:03.079Z,94.50
2018-07-28T06:51:12.621Z,89.00
2018-07-28T06:56:17.533Z,89.40
2018-07-28T07:01:22.437Z,90.70
2018-07-28T07:06:27.151Z,91.10
2018-07-28T07:11:32.425Z,91.00
2018-07-28T07:16:37.449Z,91.60
2018-07-28T07:21:42.116Z,92.40
2018-07-28T07:26:46.983Z,91.60
2018-07-28T07:31:51.817Z,93.10
2018-07-28T07:36:56.654Z,94.70
2018-07-28T07:42:01.826Z,95.40
2018-07-28T07:47:06.754Z,97.10
2018-07-28T07:52:12.608Z,96.90
2018-07-28T07:57:17.578Z,97.10
2018-07-28T08:02:22.364Z,98.10
2018-07-28T08:07:27.260Z,95.90
2018-07-28T08:12:31.816Z,94.20
2018-07-28T08:17:36.711Z,92.10
2018-07-28T08:22:41.450Z,89.70
2018-07-28T08:27:46.419Z,86.90
2018-07-28T08:32:51.768Z,86.30
2018-07-28T08:37:56.645Z,86.50
2018-07-28T08:43:01.634Z,86.30
2018-07-28T08:48:06.553Z,86.30
2018-07-28T08:53:11.899Z,86.60
2018-07-28T08:58:16.724Z,87.00
2018-07-28T09:03:21.819Z,86.90
2018-07-28T09:08:27.291Z,87.20
2018-07-28T09:13:32.433Z,87.60
2018-07-28T09:18:38.041Z,88.00
2018-07-28T09:23:43.172Z,87.20
2018-07-28T09:28:48.123Z,87.60
2018-07-28T09:33:52.939Z,87.70
2018-07-28T09:38:57.638Z,88.00
2018-07-28T09:44:02.334Z,87.00
2018-07-28T09:49:07.340Z,87.10
2018-07-28T09:54:11.916Z,87.40
2018-07-28T09:59:17.167Z,85.70
2018-07-28T10:04:21.996Z,84.50
2018-07-28T10:09:26.826Z,83.50
2018-07-28T10:14:31.522Z,82.50
2018-07-28T10:19:36.419Z,81.50
2018-07-28T10:24:41.093Z,81.30
2018-07-28T10:29:46.069Z,79.40
2018-07-28T10:34:50.876Z,77.70
2018-07-28T10:39:55.895Z,78.90
2018-07-28T10:45:03.391Z,77.10
2018-07-28T10:50:08.337Z,76.90
2018-07-28T10:55:13.529Z,74.20
2018-07-28T11:00:19.144Z,70.80
2018-07-28T11:05:23.869Z,72.00
2018-07-28T11:10:28.673Z,70.50
2018-07-28T11:15:33.486Z,66.90
2018-07-28T11:20:38.284Z,67.60
2018-07-28T11:25:43.606Z,67.30
2018-07-28T11:30:48.542Z,69.50
2018-07-28T11:36:04.157Z,69.20
2018-07-28T11:41:19.957Z,69.40
2018-07-28T11:46:24.761Z,70.30
2018-07-28T11:51:30.356Z,70.40
2018-07-28T11:56:35.236Z,72.10
2018-07-28T12:01:40.789Z,75.40
2018-07-28T12:06:45.440Z,75.60
2018-07-28T12:11:50.495Z,75.10
2018-07-28T12:16:55.839Z,75.40
2018-07-28T12:22:00.575Z,75.40
2018-07-28T12:27:05.191Z,77.30
2018-07-28T12:32:10.164Z,77.90
2018-07-28T12:37:14.994Z,78.60
2018-07-28T12:42:21.026Z,77.30
2018-07-28T12:47:25.565Z,78.40
2018-07-28T12:52:30.601Z,79.10
2018-07-28T12:57:35.249Z,80.30
2018-07-28T13:02:40.215Z,79.70
2018-07-28T13:07:45.040Z,79.90
2018-07-28T13:12:49.777Z,79.20
2018-07-28T13:17:55.099Z,79.60
2018-07-28T13:23:00.600Z,79.30
2018-07-28T13:28:05.314Z,78.90
2018-07-28T13:33:10.461Z,77.40
2018-07-28T13:38:15.444Z,77.40
2018-07-28T13:43:20.273Z,76.40
2018-07-28T13:48:25.088Z,75.70
2018-07-28T13:53:29.890Z,75.40
2018-07-28T13:58:34.670Z,77.40
2018-07-28T14:03:40.260Z,77.70
2018-07-28T14:08:45.412Z,80.50
2018-07-28T14:13:50.184Z,80.50
2018-07-28T14:18:55.287Z,79.60
2018-07-28T14:24:00.351Z,81.00
2018-07-28T14:29:05.227Z,81.00
2018-07-28T14:34:10.473Z,80.70
2018-07-28T14:39:15.628Z,80.90
2018-07-28T14:44:20.465Z,79.80
2018-07-28T14:49:25.416Z,80.20
2018-07-28T14:54:30.531Z,81.00
2018-07-28T14:59:35.480Z,82.50
2018-07-28T15:04:40.298Z,83.80
2018-07-28T15:09:45.264Z,85.70
2018-07-28T15:14:50.130Z,85.80
2018-07-28T15:19:54.845Z,84.60
2018-07-28T15:24:59.804Z,83.60
2018-07-28T15:30:05.134Z,83.90
2018-07-28T15:35:10.205Z,84.00
2018-07-28T15:40:15.141Z,83.90
2018-07-28T15:45:20.145Z,82.20
2018-07-28T15:50:25.530Z,83.90
2018-07-28T15:55:30.353Z,84.50
2018-07-28T16:00:35.231Z,85.30
2018-07-28T16:05:40.125Z,84.90
2018-07-28T16:10:45.775Z,84.90
2018-07-28T16:15:50.534Z,84.80
2018-07-28T16:20:55.804Z,85.50
2018-07-28T16:26:01.015Z,86.00
2018-07-28T16:31:06.195Z,86.70
2018-07-28T16:36:11.238Z,87.50
2018-07-28T16:41:16.184Z,89.30
2018-07-28T16:46:20.973Z,94.10
2018-07-28T16:51:25.713Z,94.50
2018-07-28T16:56:30.696Z,94.80
2018-07-28T17:01:35.628Z,93.00
2018-07-28T17:06:41.082Z,94.50
2018-07-28T17:11:45.765Z,96.00
2018-07-28T17:16:51.156Z,96.70
2018-07-28T17:21:56.155Z,96.30
2018-07-28T17:27:01.153Z,95.50
2018-07-28T17:32:06.086Z,99.00
2018-07-28T17:37:11.023Z,98.70
2018-07-28T17:42:15.944Z,99.00
2018-07-28T17:47:21.016Z,97.80
2018-07-28T17:52:25.723Z,97.30
2018-07-28T17:57:30.751Z,97.00
2018-07-28T18:02:35.469Z,98.30
2018-07-28T18:07:40.263Z,96.90
2018-07-28T18:12:45.226Z,98.60
2018-07-28T18:17:50.136Z,98.00
2018-07-28T18:22:55.344Z,98.30
2018-07-28T18:28:00.334Z,99.50
2018-07-28T18:33:05.707Z,98.10
2018-07-28T18:39:13.383Z,97.80
2018-07-28T18:44:18.339Z,99.10
2018-07-28T18:49:23.169Z,97.80
2018-07-28T18:54:27.880Z,98.60
2018-07-28T18:59:32.534Z,98.10
2018-07-28T19:04:37.307Z,98.20
2018-07-28T19:09:50.131Z,99.60
2018-07-28T19:14:55.204Z,99.60
2018-07-28T19:20:00.213Z,99.60
2018-07-28T19:25:05.625Z,99.60
2018-07-28T19:30:10.774Z,99.60
2018-07-28T19:35:15.497Z,99.60
2018-07-28T19:40:20.459Z,99.60
2018-07-28T19:45:25.239Z,99.60
2018-07-28T19:50:30.206Z,99.60
2018-07-28T19:55:35.094Z,99.60
2018-07-28T20:00:39.873Z,99.60
2018-07-28T20:05:45.822Z,99.60
2018-07-28T20:10:52.263Z,99.60
2018-07-28T20:15:57.188Z,99.60
2018-07-28T20:21:02.434Z,99.60
2018-07-28T20:26:07.101Z,99.60
2018-07-28T20:31:12.613Z,99.60
2018-07-28T20:36:17.348Z,99.60
2018-07-28T20:41:22.960Z,99.60
2018-07-28T20:46:27.531Z,99.60
2018-07-28T20:51:32.179Z,99.60
2018-07-28T20:56:37.018Z,99.60
2018-07-28T21:01:42.972Z,99.60
2018-07-28T21:06:48.378Z,99.60
2018-07-28T21:11:53.461Z,99.60
2018-07-28T21:16:58.714Z,99.60
2018-07-28T21:22:03.521Z,99.60
2018-07-28T21:27:08.967Z,99.60
2018-07-28T21:32:13.716Z,99.60
2018-07-28T21:37:22.059Z,99.60
2018-07-28T21:42:26.998Z,99.60
2018-07-28T21:47:31.965Z,99.60
2018-07-28T21:52:36.780Z,99.60
2018-07-28T21:57:41.506Z,99.60
2018-07-28T22:02:46.332Z,99.60
2018-07-28T22:07:52.413Z,99.60
2018-07-28T22:12:57.273Z,99.60
2018-07-28T22:18:02.121Z,99.60
2018-07-28T22:23:07.336Z,99.60
2018-07-28T22:28:12.288Z,99.60
2018-07-28T22:33:17.526Z,99.60
2018-07-28T22:38:22.227Z,99.60
2018-07-28T22:43:26.997Z,99.60
2018-07-28T22:48:32.963Z,99.60
2018-07-28T22:53:37.692Z,99.60
2018-07-28T22:58:43.039Z,99.60
2018-07-28T23:03:47.716Z,99.60
2018-07-28T23:08:53.173Z,99.60
2018-07-28T23:13:57.867Z,99.60
2018-07-28T23:19:02.894Z,99.60
2018-07-28T23:24:07.645Z,99.60
2018-07-28T23:29:12.416Z,99.60
2018-07-28T23:34:17.128Z,99.60
2018-07-28T23:39:21.857Z,99.60
2018-07-28T23:44:26.628Z,99.60
2018-07-28T23:49:31.550Z,99.60
2018-07-28T23:54:36.565Z,99.60
2018-07-28T23:59:41.831Z,99.60
